sensor_id;sensor_type;location;lat;lon;timestamp;pressure;altitude;pressure_sealevel;temperature;humidity
48862;BME280;34681;49.188;-0.374;2023-02-04T00:00:21;103520.13;;;12.99;68.90
48862;BME280;34681;49.188;-0.374;2023-02-04T00:02:47;103526.66;;;12.82;69.10
48862;BME280;34681;49.188;-0.374;2023-02-04T00:05:15;103532.56;;;12.90;69.09
48862;BME280;34681;49.188;-0.374;2023-02-04T00:07:41;103527.47;;;12.98;68.77
48862;BME280;34681;49.188;-0.374;2023-02-04T00:10:07;103522.03;;;12.82;69.47
48862;BME280;34681;49.188;-0.374;2023-02-04T00:12:32;103526.03;;;12.92;68.98
48862;BME280;34681;49.188;-0.374;2023-02-04T00:14:58;103529.19;;;13.01;68.60
48862;BME280;34681;49.188;-0.374;2023-02-04T00:17:23;103515.03;;;13.07;68.46
48862;BME280;34681;49.188;-0.374;2023-02-04T00:19:49;103521.03;;;13.13;68.17
48862;BME280;34681;49.188;-0.374;2023-02-04T00:22:15;103519.16;;;13.00;68.92
48862;BME280;34681;49.188;-0.374;2023-02-04T00:24:41;103523.75;;;12.85;69.43
48862;BME280;34681;49.188;-0.374;2023-02-04T00:27:12;103521.91;;;13.00;68.69
48862;BME280;34681;49.188;-0.374;2023-02-04T00:29:38;103518.66;;;13.07;68.28
48862;BME280;34681;49.188;-0.374;2023-02-04T00:32:03;103520.72;;;13.04;68.71
48862;BME280;34681;49.188;-0.374;2023-02-04T00:34:28;103521.78;;;12.57;69.89
48862;BME280;34681;49.188;-0.374;2023-02-04T00:36:54;103522.59;;;12.73;69.42
48862;BME280;34681;49.188;-0.374;2023-02-04T00:39:19;103524.88;;;12.67;69.51
48862;BME280;34681;49.188;-0.374;2023-02-04T00:41:45;103534.00;;;12.67;69.52
48862;BME280;34681;49.188;-0.374;2023-02-04T00:44:10;103520.19;;;12.53;70.08
48862;BME280;34681;49.188;-0.374;2023-02-04T00:46:38;103518.28;;;12.39;70.52
48862;BME280;34681;49.188;-0.374;2023-02-04T00:49:03;103515.38;;;12.26;70.38
48862;BME280;34681;49.188;-0.374;2023-02-04T00:51:30;103523.44;;;12.14;71.33
48862;BME280;34681;49.188;-0.374;2023-02-04T00:53:55;103524.75;;;12.38;70.73
48862;BME280;34681;49.188;-0.374;2023-02-04T00:56:21;103534.72;;;12.55;70.17
48862;BME280;34681;49.188;-0.374;2023-02-04T00:58:46;103538.84;;;12.16;71.24
48862;BME280;34681;49.188;-0.374;2023-02-04T01:01:11;103533.97;;;12.21;71.16
48862;BME280;34681;49.188;-0.374;2023-02-04T01:03:37;103516.19;;;12.13;71.06
48862;BME280;34681;49.188;-0.374;2023-02-04T01:06:02;103514.22;;;12.15;71.45
48862;BME280;34681;49.188;-0.374;2023-02-04T01:08:28;103527.72;;;12.03;71.55
48862;BME280;34681;49.188;-0.374;2023-02-04T01:10:53;103530.25;;;12.06;71.79
48862;BME280;34681;49.188;-0.374;2023-02-04T01:13:18;103534.03;;;12.51;70.14
48862;BME280;34681;49.188;-0.374;2023-02-04T01:15:43;103544.72;;;12.56;69.94
48862;BME280;34681;49.188;-0.374;2023-02-04T01:18:11;103528.22;;;12.42;70.43
48862;BME280;34681;49.188;-0.374;2023-02-04T01:20:36;103527.03;;;12.46;70.12
48862;BME280;34681;49.188;-0.374;2023-02-04T01:23:02;103525.50;;;11.94;71.48
48862;BME280;34681;49.188;-0.374;2023-02-04T01:25:27;103535.25;;;11.84;72.26
48862;BME280;34681;49.188;-0.374;2023-02-04T01:27:52;103537.16;;;12.14;71.56
48862;BME280;34681;49.188;-0.374;2023-02-04T01:30:18;103533.44;;;12.30;70.93
48862;BME280;34681;49.188;-0.374;2023-02-04T01:32:43;103534.84;;;12.37;70.48
48862;BME280;34681;49.188;-0.374;2023-02-04T01:35:08;103531.53;;;12.17;71.21
48862;BME280;34681;49.188;-0.374;2023-02-04T01:37:34;103524.41;;;12.28;70.90
48862;BME280;34681;49.188;-0.374;2023-02-04T01:39:59;103532.44;;;12.47;70.08
48862;BME280;34681;49.188;-0.374;2023-02-04T01:42:25;103532.72;;;12.43;70.33
48862;BME280;34681;49.188;-0.374;2023-02-04T01:44:50;103529.56;;;12.64;69.60
48862;BME280;34681;49.188;-0.374;2023-02-04T01:47:16;103535.28;;;12.46;70.29
48862;BME280;34681;49.188;-0.374;2023-02-04T01:49:42;103531.50;;;12.62;69.78
48862;BME280;34681;49.188;-0.374;2023-02-04T01:52:09;103526.03;;;12.62;69.59
48862;BME280;34681;49.188;-0.374;2023-02-04T01:54:34;103531.38;;;12.50;69.69
48862;BME280;34681;49.188;-0.374;2023-02-04T01:57:00;103530.84;;;12.43;70.19
48862;BME280;34681;49.188;-0.374;2023-02-04T01:59:26;103532.63;;;12.44;69.84
48862;BME280;34681;49.188;-0.374;2023-02-04T02:01:52;103534.75;;;12.39;70.07
48862;BME280;34681;49.188;-0.374;2023-02-04T02:04:22;103528.22;;;12.26;70.55
48862;BME280;34681;49.188;-0.374;2023-02-04T02:06:52;103525.63;;;12.38;70.09
48862;BME280;34681;49.188;-0.374;2023-02-04T02:09:19;103524.38;;;12.44;69.88
48862;BME280;34681;49.188;-0.374;2023-02-04T02:11:45;103534.06;;;12.35;70.02
48862;BME280;34681;49.188;-0.374;2023-02-04T02:14:10;103527.22;;;12.43;69.99
48862;BME280;34681;49.188;-0.374;2023-02-04T02:16:36;103531.13;;;12.38;69.84
48862;BME280;34681;49.188;-0.374;2023-02-04T02:19:03;103521.22;;;12.20;70.38
48862;BME280;34681;49.188;-0.374;2023-02-04T02:21:49;103513.22;;;12.47;69.81
48862;BME280;34681;49.188;-0.374;2023-02-04T02:24:28;103523.06;;;12.65;68.96
48862;BME280;34681;49.188;-0.374;2023-02-04T02:26:56;103516.22;;;12.58;69.04
48862;BME280;34681;49.188;-0.374;2023-02-04T02:29:24;103530.78;;;12.29;69.85
48862;BME280;34681;49.188;-0.374;2023-02-04T02:31:50;103518.56;;;12.64;68.47
48862;BME280;34681;49.188;-0.374;2023-02-04T02:34:16;103515.66;;;12.68;68.77
48862;BME280;34681;49.188;-0.374;2023-02-04T02:36:43;103514.06;;;12.63;68.70
48862;BME280;34681;49.188;-0.374;2023-02-04T02:39:08;103522.22;;;12.49;69.26
48862;BME280;34681;49.188;-0.374;2023-02-04T02:41:34;103512.69;;;12.41;69.35
48862;BME280;34681;49.188;-0.374;2023-02-04T02:44:00;103512.59;;;12.58;69.01
48862;BME280;34681;49.188;-0.374;2023-02-04T02:46:26;103506.25;;;12.42;69.30
48862;BME280;34681;49.188;-0.374;2023-02-04T02:48:51;103513.22;;;12.31;69.42
48862;BME280;34681;49.188;-0.374;2023-02-04T02:51:17;103517.25;;;12.26;69.81
48862;BME280;34681;49.188;-0.374;2023-02-04T02:53:43;103522.09;;;12.36;69.34
48862;BME280;34681;49.188;-0.374;2023-02-04T02:56:09;103518.69;;;12.47;68.85
48862;BME280;34681;49.188;-0.374;2023-02-04T02:58:35;103524.22;;;12.31;69.65
48862;BME280;34681;49.188;-0.374;2023-02-04T03:01:03;103523.63;;;12.56;68.67
48862;BME280;34681;49.188;-0.374;2023-02-04T03:03:32;103523.56;;;12.58;68.65
48862;BME280;34681;49.188;-0.374;2023-02-04T03:06:06;103523.28;;;12.62;68.31
48862;BME280;34681;49.188;-0.374;2023-02-04T03:08:34;103522.53;;;12.45;68.93
48862;BME280;34681;49.188;-0.374;2023-02-04T03:11:00;103517.75;;;12.32;69.27
48862;BME280;34681;49.188;-0.374;2023-02-04T03:13:25;103531.97;;;12.25;69.97
48862;BME280;34681;49.188;-0.374;2023-02-04T03:15:51;103532.09;;;12.37;69.21
48862;BME280;34681;49.188;-0.374;2023-02-04T03:18:18;103528.53;;;12.51;68.98
48862;BME280;34681;49.188;-0.374;2023-02-04T03:20:45;103529.56;;;12.34;69.46
48862;BME280;34681;49.188;-0.374;2023-02-04T03:23:12;103523.16;;;12.34;69.23
48862;BME280;34681;49.188;-0.374;2023-02-04T03:25:38;103523.22;;;12.48;68.78
48862;BME280;34681;49.188;-0.374;2023-02-04T03:28:04;103529.09;;;12.42;69.18
48862;BME280;34681;49.188;-0.374;2023-02-04T03:30:29;103524.47;;;12.43;69.33
48862;BME280;34681;49.188;-0.374;2023-02-04T03:32:55;103524.06;;;12.19;69.92
48862;BME280;34681;49.188;-0.374;2023-02-04T03:35:21;103530.03;;;12.41;69.38
48862;BME280;34681;49.188;-0.374;2023-02-04T03:37:46;103523.97;;;12.36;69.48
48862;BME280;34681;49.188;-0.374;2023-02-04T03:40:12;103524.97;;;12.19;69.80
48862;BME280;34681;49.188;-0.374;2023-02-04T03:42:37;103531.03;;;12.24;70.11
48862;BME280;34681;49.188;-0.374;2023-02-04T03:45:03;103518.66;;;12.33;69.75
48862;BME280;34681;49.188;-0.374;2023-02-04T03:47:28;103521.00;;;11.93;70.76
48862;BME280;34681;49.188;-0.374;2023-02-04T03:49:54;103529.03;;;11.96;71.30
48862;BME280;34681;49.188;-0.374;2023-02-04T03:52:19;103531.13;;;12.38;69.88
48862;BME280;34681;49.188;-0.374;2023-02-04T03:54:45;103527.09;;;12.60;68.86
48862;BME280;34681;49.188;-0.374;2023-02-04T03:57:11;103515.97;;;12.31;69.84
48862;BME280;34681;49.188;-0.374;2023-02-04T03:59:37;103524.41;;;12.28;70.17
48862;BME280;34681;49.188;-0.374;2023-02-04T04:02:02;103525.41;;;11.96;70.92
48862;BME280;34681;49.188;-0.374;2023-02-04T04:04:27;103532.84;;;12.25;70.02
48862;BME280;34681;49.188;-0.374;2023-02-04T04:06:53;103538.81;;;12.32;69.80
48862;BME280;34681;49.188;-0.374;2023-02-04T04:09:18;103535.47;;;12.43;69.89
48862;BME280;34681;49.188;-0.374;2023-02-04T04:11:43;103531.63;;;12.61;69.02
48862;BME280;34681;49.188;-0.374;2023-02-04T04:14:09;103532.78;;;12.41;69.59
48862;BME280;34681;49.188;-0.374;2023-02-04T04:16:34;103535.69;;;12.54;69.08
48862;BME280;34681;49.188;-0.374;2023-02-04T04:18:59;103530.16;;;12.24;70.14
48862;BME280;34681;49.188;-0.374;2023-02-04T04:21:25;103531.75;;;12.28;70.14
48862;BME280;34681;49.188;-0.374;2023-02-04T04:23:50;103537.88;;;12.33;69.97
48862;BME280;34681;49.188;-0.374;2023-02-04T04:26:15;103536.88;;;12.50;69.52
48862;BME280;34681;49.188;-0.374;2023-02-04T04:28:41;103537.75;;;12.50;69.36
48862;BME280;34681;49.188;-0.374;2023-02-04T04:31:07;103540.25;;;12.39;69.51
48862;BME280;34681;49.188;-0.374;2023-02-04T04:33:32;103539.28;;;12.70;68.64
48862;BME280;34681;49.188;-0.374;2023-02-04T04:35:57;103542.50;;;12.62;69.19
48862;BME280;34681;49.188;-0.374;2023-02-04T04:38:23;103545.72;;;12.39;69.60
48862;BME280;34681;49.188;-0.374;2023-02-04T04:40:48;103542.66;;;11.98;70.89
48862;BME280;34681;49.188;-0.374;2023-02-04T04:43:14;103541.09;;;11.94;70.80
48862;BME280;34681;49.188;-0.374;2023-02-04T04:45:39;103544.81;;;12.08;70.65
48862;BME280;34681;49.188;-0.374;2023-02-04T04:48:04;103536.38;;;12.12;70.57
48862;BME280;34681;49.188;-0.374;2023-02-04T04:50:30;103539.47;;;12.05;70.83
48862;BME280;34681;49.188;-0.374;2023-02-04T04:52:55;103535.63;;;12.40;69.68
48862;BME280;34681;49.188;-0.374;2023-02-04T04:55:20;103538.03;;;12.46;69.43
48862;BME280;34681;49.188;-0.374;2023-02-04T04:57:46;103542.69;;;12.59;69.04
48862;BME280;34681;49.188;-0.374;2023-02-04T05:00:15;103549.25;;;12.41;69.54
48862;BME280;34681;49.188;-0.374;2023-02-04T05:02:41;103545.38;;;12.45;69.48
48862;BME280;34681;49.188;-0.374;2023-02-04T05:05:07;103553.88;;;12.41;69.60
48862;BME280;34681;49.188;-0.374;2023-02-04T05:07:33;103553.25;;;12.51;69.38
48862;BME280;34681;49.188;-0.374;2023-02-04T05:09:58;103555.56;;;12.59;68.93
48862;BME280;34681;49.188;-0.374;2023-02-04T05:12:23;103555.34;;;12.62;68.76
48862;BME280;34681;49.188;-0.374;2023-02-04T05:14:49;103551.19;;;12.55;68.68
48862;BME280;34681;49.188;-0.374;2023-02-04T05:17:14;103555.84;;;12.38;69.34
48862;BME280;34681;49.188;-0.374;2023-02-04T05:19:39;103555.47;;;12.45;69.18
48862;BME280;34681;49.188;-0.374;2023-02-04T05:22:04;103553.91;;;12.71;68.31
48862;BME280;34681;49.188;-0.374;2023-02-04T05:24:30;103549.19;;;12.43;69.01
48862;BME280;34681;49.188;-0.374;2023-02-04T05:26:55;103556.16;;;12.48;69.14
48862;BME280;34681;49.188;-0.374;2023-02-04T05:29:20;103554.25;;;12.50;69.03
48862;BME280;34681;49.188;-0.374;2023-02-04T05:31:46;103555.44;;;12.60;68.39
48862;BME280;34681;49.188;-0.374;2023-02-04T05:34:11;103549.34;;;12.40;69.21
48862;BME280;34681;49.188;-0.374;2023-02-04T05:36:36;103551.09;;;12.56;68.55
48862;BME280;34681;49.188;-0.374;2023-02-04T05:39:02;103550.00;;;12.29;69.35
48862;BME280;34681;49.188;-0.374;2023-02-04T05:41:27;103558.84;;;12.50;68.53
48862;BME280;34681;49.188;-0.374;2023-02-04T05:43:53;103558.25;;;12.13;69.25
48862;BME280;34681;49.188;-0.374;2023-02-04T05:46:18;103564.72;;;12.12;69.53
48862;BME280;34681;49.188;-0.374;2023-02-04T05:48:43;103562.81;;;11.81;70.26
48862;BME280;34681;49.188;-0.374;2023-02-04T05:51:09;103571.72;;;12.18;69.28
48862;BME280;34681;49.188;-0.374;2023-02-04T05:53:34;103568.69;;;12.22;69.33
48862;BME280;34681;49.188;-0.374;2023-02-04T05:56:00;103569.41;;;12.26;69.12
48862;BME280;34681;49.188;-0.374;2023-02-04T05:58:25;103571.88;;;12.15;69.66
48862;BME280;34681;49.188;-0.374;2023-02-04T06:00:57;103568.22;;;12.46;68.14
48862;BME280;34681;49.188;-0.374;2023-02-04T06:03:23;103571.00;;;12.30;69.05
48862;BME280;34681;49.188;-0.374;2023-02-04T06:05:48;103581.53;;;12.37;68.54
48862;BME280;34681;49.188;-0.374;2023-02-04T06:08:13;103581.53;;;12.37;68.67
48862;BME280;34681;49.188;-0.374;2023-02-04T06:10:40;103578.16;;;12.32;69.14
48862;BME280;34681;49.188;-0.374;2023-02-04T06:13:05;103574.19;;;12.22;69.05
48862;BME280;34681;49.188;-0.374;2023-02-04T06:15:30;103583.59;;;12.18;69.14
48862;BME280;34681;49.188;-0.374;2023-02-04T06:17:56;103583.69;;;12.17;69.20
48862;BME280;34681;49.188;-0.374;2023-02-04T06:20:22;103589.22;;;12.31;68.95
48862;BME280;34681;49.188;-0.374;2023-02-04T06:22:47;103587.72;;;12.41;68.48
48862;BME280;34681;49.188;-0.374;2023-02-04T06:25:16;103594.25;;;12.54;68.08
48862;BME280;34681;49.188;-0.374;2023-02-04T06:27:41;103590.72;;;12.52;68.09
48862;BME280;34681;49.188;-0.374;2023-02-04T06:30:07;103592.19;;;12.74;67.47
48862;BME280;34681;49.188;-0.374;2023-02-04T06:32:33;103590.81;;;12.67;67.65
48862;BME280;34681;49.188;-0.374;2023-02-04T06:34:58;103584.63;;;12.47;68.17
48862;BME280;34681;49.188;-0.374;2023-02-04T06:37:23;103584.19;;;12.39;68.13
48862;BME280;34681;49.188;-0.374;2023-02-04T06:39:49;103587.56;;;12.28;68.62
48862;BME280;34681;49.188;-0.374;2023-02-04T06:42:14;103585.50;;;12.32;68.73
48862;BME280;34681;49.188;-0.374;2023-02-04T06:44:39;103587.91;;;12.38;68.56
48862;BME280;34681;49.188;-0.374;2023-02-04T06:47:05;103588.25;;;12.48;68.07
48862;BME280;34681;49.188;-0.374;2023-02-04T06:49:30;103585.59;;;11.99;69.42
48862;BME280;34681;49.188;-0.374;2023-02-04T06:51:55;103589.16;;;12.17;68.88
48862;BME280;34681;49.188;-0.374;2023-02-04T06:54:21;103591.97;;;12.31;68.36
48862;BME280;34681;49.188;-0.374;2023-02-04T06:56:55;103585.94;;;12.40;68.02
48862;BME280;34681;49.188;-0.374;2023-02-04T06:59:35;103585.44;;;12.18;68.37
48862;BME280;34681;49.188;-0.374;2023-02-04T07:02:01;103587.22;;;12.34;68.11
48862;BME280;34681;49.188;-0.374;2023-02-04T07:04:27;103593.59;;;12.19;68.49
48862;BME280;34681;49.188;-0.374;2023-02-04T07:06:52;103596.59;;;12.15;68.83
48862;BME280;34681;49.188;-0.374;2023-02-04T07:09:18;103593.31;;;11.92;68.69
48862;BME280;34681;49.188;-0.374;2023-02-04T07:11:43;103593.56;;;11.88;68.91
48862;BME280;34681;49.188;-0.374;2023-02-04T07:14:09;103598.72;;;11.94;68.73
48862;BME280;34681;49.188;-0.374;2023-02-04T07:16:35;103610.34;;;11.14;70.45
48862;BME280;34681;49.188;-0.374;2023-02-04T07:19:01;103613.09;;;11.14;70.38
48862;BME280;34681;49.188;-0.374;2023-02-04T07:21:26;103610.28;;;10.98;71.19
48862;BME280;34681;49.188;-0.374;2023-02-04T07:23:52;103622.56;;;10.55;72.48
48862;BME280;34681;49.188;-0.374;2023-02-04T07:26:17;103618.25;;;10.49;73.09
48862;BME280;34681;49.188;-0.374;2023-02-04T07:28:42;103613.09;;;11.14;71.44
48862;BME280;34681;49.188;-0.374;2023-02-04T07:31:08;103613.66;;;11.71;69.87
48862;BME280;34681;49.188;-0.374;2023-02-04T07:33:34;103607.47;;;12.16;68.26
48862;BME280;34681;49.188;-0.374;2023-02-04T07:35:59;103615.44;;;11.72;68.77
48862;BME280;34681;49.188;-0.374;2023-02-04T07:38:24;103616.59;;;11.68;68.50
48862;BME280;34681;49.188;-0.374;2023-02-04T07:40:50;103621.81;;;11.72;68.37
48862;BME280;34681;49.188;-0.374;2023-02-04T07:43:15;103628.72;;;11.97;67.14
48862;BME280;34681;49.188;-0.374;2023-02-04T07:45:40;103633.13;;;11.84;66.40
48862;BME280;34681;49.188;-0.374;2023-02-04T07:48:06;103623.44;;;11.76;66.95
48862;BME280;34681;49.188;-0.374;2023-02-04T07:50:32;103626.34;;;12.22;65.59
48862;BME280;34681;49.188;-0.374;2023-02-04T07:52:57;103625.13;;;12.28;65.59
48862;BME280;34681;49.188;-0.374;2023-02-04T07:55:23;103632.81;;;12.37;65.38
48862;BME280;34681;49.188;-0.374;2023-02-04T07:57:48;103632.38;;;12.45;64.99
48862;BME280;34681;49.188;-0.374;2023-02-04T08:00:14;103631.50;;;12.28;65.46
48862;BME280;34681;49.188;-0.374;2023-02-04T08:02:40;103629.88;;;12.56;64.68
48862;BME280;34681;49.188;-0.374;2023-02-04T08:05:06;103624.47;;;12.54;64.35
48862;BME280;34681;49.188;-0.374;2023-02-04T08:07:32;103622.91;;;12.50;64.25
48862;BME280;34681;49.188;-0.374;2023-02-04T08:09:57;103626.31;;;12.70;63.64
48862;BME280;34681;49.188;-0.374;2023-02-04T08:12:22;103631.06;;;12.82;63.38
48862;BME280;34681;49.188;-0.374;2023-02-04T08:14:48;103634.78;;;12.97;62.79
48862;BME280;34681;49.188;-0.374;2023-02-04T08:17:13;103632.13;;;12.95;63.00
48862;BME280;34681;49.188;-0.374;2023-02-04T08:19:38;103638.72;;;13.07;62.76
48862;BME280;34681;49.188;-0.374;2023-02-04T08:22:04;103630.38;;;12.78;63.45
48862;BME280;34681;49.188;-0.374;2023-02-04T08:24:29;103632.22;;;12.93;62.71
48862;BME280;34681;49.188;-0.374;2023-02-04T08:26:54;103637.06;;;13.04;62.41
48862;BME280;34681;49.188;-0.374;2023-02-04T08:29:20;103629.63;;;12.90;62.78
48862;BME280;34681;49.188;-0.374;2023-02-04T08:31:45;103633.94;;;13.10;62.17
48862;BME280;34681;49.188;-0.374;2023-02-04T08:34:12;103627.06;;;13.33;61.26
48862;BME280;34681;49.188;-0.374;2023-02-04T08:36:37;103631.09;;;13.28;60.95
48862;BME280;34681;49.188;-0.374;2023-02-04T08:39:02;103633.84;;;13.12;61.73
48862;BME280;34681;49.188;-0.374;2023-02-04T08:41:28;103636.78;;;13.25;61.02
48862;BME280;34681;49.188;-0.374;2023-02-04T08:43:53;103634.97;;;13.24;61.47
48862;BME280;34681;49.188;-0.374;2023-02-04T08:46:19;103632.97;;;13.11;60.53
48862;BME280;34681;49.188;-0.374;2023-02-04T08:48:44;103639.34;;;13.12;60.18
48862;BME280;34681;49.188;-0.374;2023-02-04T08:51:09;103648.75;;;12.78;61.00
48862;BME280;34681;49.188;-0.374;2023-02-04T08:53:35;103648.72;;;12.93;59.61
48862;BME280;34681;49.188;-0.374;2023-02-04T08:56:01;103654.59;;;12.72;59.83
48862;BME280;34681;49.188;-0.374;2023-02-04T08:58:27;103642.91;;;12.52;60.15
48862;BME280;34681;49.188;-0.374;2023-02-04T09:00:52;103652.94;;;12.37;60.23
48862;BME280;34681;49.188;-0.374;2023-02-04T09:03:17;103654.69;;;12.38;60.97
48862;BME280;34681;49.188;-0.374;2023-02-04T09:05:43;103659.41;;;12.52;60.07
48862;BME280;34681;49.188;-0.374;2023-02-04T09:08:08;103658.94;;;12.28;61.05
48862;BME280;34681;49.188;-0.374;2023-02-04T09:10:33;103665.44;;;12.59;60.73
48862;BME280;34681;49.188;-0.374;2023-02-04T09:12:59;103656.09;;;13.23;59.57
48862;BME280;34681;49.188;-0.374;2023-02-04T09:15:24;103660.28;;;13.44;59.16
48862;BME280;34681;49.188;-0.374;2023-02-04T09:17:50;103661.78;;;13.64;58.78
48862;BME280;34681;49.188;-0.374;2023-02-04T09:20:18;103665.75;;;13.74;58.58
48862;BME280;34681;49.188;-0.374;2023-02-04T09:22:43;103664.88;;;13.74;58.50
48862;BME280;34681;49.188;-0.374;2023-02-04T09:25:09;103668.19;;;13.79;58.72
48862;BME280;34681;49.188;-0.374;2023-02-04T09:27:34;103669.69;;;13.40;59.05
48862;BME280;34681;49.188;-0.374;2023-02-04T09:29:59;103675.25;;;13.55;58.81
48862;BME280;34681;49.188;-0.374;2023-02-04T09:32:25;103690.94;;;13.83;58.06
48862;BME280;34681;49.188;-0.374;2023-02-04T09:34:50;103682.34;;;13.87;58.14
48862;BME280;34681;49.188;-0.374;2023-02-04T09:37:15;103691.22;;;13.92;58.05
48862;BME280;34681;49.188;-0.374;2023-02-04T09:39:41;103690.94;;;13.83;58.30
48862;BME280;34681;49.188;-0.374;2023-02-04T09:42:09;103691.69;;;13.70;58.81
48862;BME280;34681;49.188;-0.374;2023-02-04T09:44:37;103696.53;;;13.95;58.26
48862;BME280;34681;49.188;-0.374;2023-02-04T09:47:02;103693.50;;;13.56;58.59
48862;BME280;34681;49.188;-0.374;2023-02-04T09:49:28;103696.31;;;13.84;58.23
48862;BME280;34681;49.188;-0.374;2023-02-04T09:51:54;103698.78;;;14.03;57.98
48862;BME280;34681;49.188;-0.374;2023-02-04T09:54:21;103696.63;;;14.08;58.31
48862;BME280;34681;49.188;-0.374;2023-02-04T09:56:47;103701.72;;;14.14;57.93
48862;BME280;34681;49.188;-0.374;2023-02-04T09:59:18;103708.94;;;14.17;58.14
48862;BME280;34681;49.188;-0.374;2023-02-04T10:01:46;103710.19;;;14.11;57.82
48862;BME280;34681;49.188;-0.374;2023-02-04T10:04:14;103715.56;;;13.70;59.08
48862;BME280;34681;49.188;-0.374;2023-02-04T10:06:41;103709.03;;;13.42;59.68
48862;BME280;34681;49.188;-0.374;2023-02-04T10:09:10;103715.47;;;13.71;58.88
48862;BME280;34681;49.188;-0.374;2023-02-04T10:11:37;103722.06;;;13.69;59.18
48862;BME280;34681;49.188;-0.374;2023-02-04T10:14:09;103725.06;;;14.09;58.30
48862;BME280;34681;49.188;-0.374;2023-02-04T10:16:37;103735.38;;;14.19;58.32
48862;BME280;34681;49.188;-0.374;2023-02-04T10:19:07;103729.25;;;14.14;58.83
48862;BME280;34681;49.188;-0.374;2023-02-04T10:21:36;103738.69;;;13.96;58.82
48862;BME280;34681;49.188;-0.374;2023-02-04T10:24:04;103742.59;;;13.33;60.13
48862;BME280;34681;49.188;-0.374;2023-02-04T10:26:32;103738.50;;;13.09;61.25
48862;BME280;34681;49.188;-0.374;2023-02-04T10:29:05;103736.25;;;13.15;61.25
48862;BME280;34681;49.188;-0.374;2023-02-04T10:31:36;103734.59;;;13.29;61.10
48862;BME280;34681;49.188;-0.374;2023-02-04T10:34:04;103736.91;;;13.66;60.43
48862;BME280;34681;49.188;-0.374;2023-02-04T10:36:30;103733.84;;;13.71;60.05
48862;BME280;34681;49.188;-0.374;2023-02-04T10:39:03;103743.63;;;14.19;58.57
48862;BME280;34681;49.188;-0.374;2023-02-04T10:41:29;103738.00;;;14.06;59.24
48862;BME280;34681;49.188;-0.374;2023-02-04T10:44:16;103737.34;;;14.03;59.53
48862;BME280;34681;49.188;-0.374;2023-02-04T10:46:42;103744.72;;;14.02;59.49
48862;BME280;34681;49.188;-0.374;2023-02-04T10:49:16;103738.13;;;14.05;59.67
48862;BME280;34681;49.188;-0.374;2023-02-04T10:51:42;103742.75;;;14.19;59.13
48862;BME280;34681;49.188;-0.374;2023-02-04T10:54:11;103753.97;;;14.44;58.45
48862;BME280;34681;49.188;-0.374;2023-02-04T10:57:17;103754.84;;;14.16;59.05
48862;BME280;34681;49.188;-0.374;2023-02-04T10:59:45;103751.78;;;14.21;59.26
48862;BME280;34681;49.188;-0.374;2023-02-04T11:04:47;103747.44;;;13.88;59.59
48862;BME280;34681;49.188;-0.374;2023-02-04T11:07:12;103748.25;;;14.19;59.03
48862;BME280;34681;49.188;-0.374;2023-02-04T11:09:40;103747.56;;;14.29;58.96
48862;BME280;34681;49.188;-0.374;2023-02-04T11:12:18;103738.72;;;14.24;59.20
48862;BME280;34681;49.188;-0.374;2023-02-04T11:14:54;103747.38;;;14.04;59.61
48862;BME280;34681;49.188;-0.374;2023-02-04T11:17:20;103743.41;;;13.94;59.61
48862;BME280;34681;49.188;-0.374;2023-02-04T11:19:46;103742.06;;;14.01;59.42
48862;BME280;34681;49.188;-0.374;2023-02-04T11:22:22;103740.28;;;14.00;58.84
48862;BME280;34681;49.188;-0.374;2023-02-04T11:24:48;103741.47;;;14.10;59.02
48862;BME280;34681;49.188;-0.374;2023-02-04T11:29:43;103741.75;;;14.05;59.15
48862;BME280;34681;49.188;-0.374;2023-02-04T11:32:32;103740.41;;;14.27;59.05
48862;BME280;34681;49.188;-0.374;2023-02-04T11:35:26;103742.66;;;14.20;59.17
48862;BME280;34681;49.188;-0.374;2023-02-04T11:37:53;103755.94;;;14.28;59.13
48862;BME280;34681;49.188;-0.374;2023-02-04T11:40:28;103747.97;;;14.23;58.93
48862;BME280;34681;49.188;-0.374;2023-02-04T11:42:59;103747.78;;;14.41;58.85
48862;BME280;34681;49.188;-0.374;2023-02-04T11:45:33;103756.44;;;14.34;58.80
48862;BME280;34681;49.188;-0.374;2023-02-04T11:48:13;103756.91;;;14.13;59.07
48862;BME280;34681;49.188;-0.374;2023-02-04T11:50:40;103751.16;;;13.87;60.15
48862;BME280;34681;49.188;-0.374;2023-02-04T11:53:10;103751.22;;;14.16;59.62
48862;BME280;34681;49.188;-0.374;2023-02-04T11:55:42;103753.66;;;14.20;59.32
48862;BME280;34681;49.188;-0.374;2023-02-04T11:58:16;103747.47;;;14.02;59.75
48862;BME280;34681;49.188;-0.374;2023-02-04T12:00:42;103751.28;;;14.14;59.47
48862;BME280;34681;49.188;-0.374;2023-02-04T12:06:02;103756.88;;;13.84;60.49
48862;BME280;34681;49.188;-0.374;2023-02-04T12:08:33;103759.97;;;14.22;59.46
48862;BME280;34681;49.188;-0.374;2023-02-04T12:13:28;103761.13;;;14.04;60.00
48862;BME280;34681;49.188;-0.374;2023-02-04T12:16:04;103750.28;;;13.87;60.47
48862;BME280;34681;49.188;-0.374;2023-02-04T12:18:31;103754.91;;;13.86;60.19
48862;BME280;34681;49.188;-0.374;2023-02-04T12:20:58;103756.06;;;13.68;60.95
48862;BME280;34681;49.188;-0.374;2023-02-04T12:23:25;103754.81;;;13.43;61.58
48862;BME280;34681;49.188;-0.374;2023-02-04T12:25:50;103755.75;;;13.58;61.36
48862;BME280;34681;49.188;-0.374;2023-02-04T12:28:16;103748.88;;;13.35;61.82
48862;BME280;34681;49.188;-0.374;2023-02-04T12:30:41;103746.97;;;13.52;61.38
48862;BME280;34681;49.188;-0.374;2023-02-04T12:33:07;103746.63;;;13.72;61.07
48862;BME280;34681;49.188;-0.374;2023-02-04T12:35:33;103743.94;;;14.00;60.49
48862;BME280;34681;49.188;-0.374;2023-02-04T12:37:59;103743.38;;;13.65;61.23
48862;BME280;34681;49.188;-0.374;2023-02-04T12:40:25;103734.00;;;13.54;61.59
48862;BME280;34681;49.188;-0.374;2023-02-04T12:42:50;103734.56;;;13.44;62.09
48862;BME280;34681;49.188;-0.374;2023-02-04T12:45:16;103740.69;;;13.64;61.21
48862;BME280;34681;49.188;-0.374;2023-02-04T12:47:42;103742.16;;;13.99;60.79